Time;durP1;ratioP1;P1;durP2;ratioP2;P2;SDS_P1;SDS_P2;PMS_P1;PMS_P2;Temp;Humidity;BMP_temperature;BMP_pressure;BME280_temperature;BME280_humidity;BME280_pressure;Samples;Min_cycle;Max_cycle;Signal;HPM_P1;HPM_P2
2021/12/25 00:02:07;;;;;;;;;;;;;;;6.36;100.00;97859.53;5088071;28;19924;-77
2021/12/25 00:04:34;;;;;;;;;;;;;;;6.42;100.00;97862.63;5092781;28;20387;-85
2021/12/25 00:07:01;;;;;;;;;;;;;;;6.55;100.00;97866.34;5056999;28;19993;-80
2021/12/25 00:09:28;;;;;;;;;;;;;;;6.50;100.00;97861.28;5081580;28;19928;-80
2021/12/25 00:11:55;;;;;;;;;;;;;;;6.46;100.00;97866.13;5071273;28;19985;-80
2021/12/25 00:14:22;;;;;;;;;;;;;;;6.25;100.00;97867.31;5059803;28;19932;-87
2021/12/25 00:16:49;;;;;;;;;;;;;;;6.31;100.00;97857.28;5078910;28;19924;-79
2021/12/25 00:19:17;;;;;;;;;;;;;;;6.64;100.00;97870.13;5070436;28;20393;-78
2021/12/25 00:23:33;;;;;;;;;;;;;;;6.37;100.00;97871.44;5115557;27;19926;-75
2021/12/25 00:26:05;;;;;;;;;;;;;;;6.50;100.00;97861.28;5035430;28;2068511;-76
2021/12/25 00:36:13;;;;;;;;;;;;;;;6.28;100.00;97873.97;5056107;28;20329;-75
2021/12/25 00:38:42;;;;;;;;;;;;;;;6.33;100.00;97881.81;5072643;28;20276;-75
2021/12/25 00:41:13;;;;;;;;;;;;;;;6.25;100.00;97874.81;5055917;28;20066;-76
2021/12/25 00:43:41;;;;;;;;;;;;;;;6.35;100.00;97874.63;5072445;28;19928;-76
2021/12/25 00:46:08;;;;;;;;;;;;;;;6.25;100.00;97883.94;5055959;28;19924;-75
2021/12/25 00:48:35;;;;;;;;;;;;;;;6.32;100.00;97880.25;5089308;28;20446;-75
2021/12/25 00:51:03;;;;;;;;;;;;;;;6.45;100.00;97883.97;5090672;28;20326;-75
2021/12/25 00:53:30;;;;;;;;;;;;;;;6.30;100.00;97877.88;5072567;28;19924;-75
2021/12/25 00:55:59;;;;;;;;;;;;;;;6.22;100.00;97882.00;5072371;28;19977;-75
2021/12/25 00:58:26;;;;;;;;;;;;;;;6.45;100.00;97886.75;5090302;28;19931;-75
2021/12/25 01:00:54;;;;;;;;;;;;;;;6.12;100.00;97887.75;5072404;28;19931;-75
2021/12/25 01:03:22;;;;;;;;;;;;;;;6.21;100.00;97882.44;5071973;28;19924;-75
2021/12/25 01:05:49;;;;;;;;;;;;;;;6.22;100.00;97879.25;5072140;28;19947;-75
2021/12/25 01:08:17;;;;;;;;;;;;;;;6.33;100.00;97881.81;5072099;28;19973;-75
2021/12/25 01:10:47;;;;;;;;;;;;;;;6.17;100.00;97893.59;5072149;28;20401;-75
2021/12/25 01:13:22;;;;;;;;;;;;;;;6.28;100.00;97885.06;5055463;28;20021;-75
2021/12/25 01:19:23;;;;;;;;;;;;;;;6.26;100.00;97895.81;5070552;28;20284;-75
2021/12/25 01:22:02;;;;;;;;;;;;;;;6.44;100.00;97890.72;5089657;28;19928;-75
2021/12/25 01:24:44;;;;;;;;;;;;;;;6.17;100.00;97890.00;5071361;28;19925;-75
2021/12/25 01:30:03;;;;;;;;;;;;;;;6.33;100.00;97888.13;5072129;28;20268;-75
2021/12/25 01:49:57;;;;;;;;;;;;;;;6.11;100.00;97898.03;5075246;28;19947;-75
2021/12/25 01:52:29;;;;;;;;;;;;;;;6.23;100.00;97899.41;5058455;28;19929;-75
2021/12/25 01:55:00;;;;;;;;;;;;;;;6.14;100.00;97902.75;5058342;28;20013;-75
2021/12/25 01:57:29;;;;;;;;;;;;;;;6.12;100.00;97898.84;5041904;28;20279;-75
2021/12/25 01:59:56;;;;;;;;;;;;;;;6.04;100.00;97906.50;5058290;28;19932;-75
2021/12/25 02:02:24;;;;;;;;;;;;;;;6.25;100.00;97902.56;5057829;28;20023;-78
2021/12/25 02:04:52;;;;;;;;;;;;;;;5.97;100.00;97897.50;5041190;28;19924;-75
2021/12/25 02:07:22;;;;;;;;;;;;;;;6.04;100.00;97902.94;5057910;28;19925;-76
2021/12/25 02:09:49;;;;;;;;;;;;;;;6.02;100.00;97900.56;5057699;28;20371;-75
2021/12/25 02:12:17;;;;;;;;;;;;;;;6.09;100.00;97903.22;5057545;28;19924;-75
2021/12/25 02:14:46;;;;;;;;;;;;;;;5.95;100.00;97916.53;5057315;28;20019;-74
2021/12/25 02:17:25;;;;;;;;;;;;;;;5.97;100.00;97919.69;5056999;28;19925;-75
2021/12/25 02:20:13;;;;;;;;;;;;;;;5.99;100.00;97918.06;5074035;28;19932;-74
2021/12/25 02:22:40;;;;;;;;;;;;;;;5.82;100.00;97910.00;5075678;28;19925;-75
2021/12/25 02:25:08;;;;;;;;;;;;;;;6.06;100.00;97911.63;5037687;28;20356;-75
2021/12/25 02:27:37;;;;;;;;;;;;;;;5.98;100.00;97921.25;5054334;28;19924;-75
2021/12/25 02:30:06;;;;;;;;;;;;;;;5.89;100.00;97918.22;5054446;28;19925;-75
2021/12/25 02:32:33;;;;;;;;;;;;;;;6.06;100.00;97928.25;5054514;28;20017;-75
2021/12/25 02:35:00;;;;;;;;;;;;;;;5.80;100.00;97932.56;5071124;28;19947;-76
2021/12/25 02:37:27;;;;;;;;;;;;;;;5.83;100.00;97931.75;5054023;28;20431;-75
2021/12/25 02:39:54;;;;;;;;;;;;;;;5.77;100.00;97938.19;5053957;28;20005;-75
2021/12/25 02:42:25;;;;;;;;;;;;;;;5.68;100.00;97940.69;5048832;28;20434;-75
2021/12/25 02:44:59;;;;;;;;;;;;;;;5.89;100.00;97940.41;5033017;28;19940;-75
2021/12/25 02:47:55;;;;;;;;;;;;;;;5.86;100.00;97941.25;5033943;28;20012;-75
2021/12/25 02:50:47;;;;;;;;;;;;;;;5.83;100.00;97940.06;5049416;28;19929;-75
2021/12/25 02:53:16;;;;;;;;;;;;;;;5.80;100.00;97940.13;5033851;28;19925;-75
2021/12/25 02:55:46;;;;;;;;;;;;;;;5.74;100.00;97934.22;5033817;28;19925;-75
2021/12/25 02:58:20;;;;;;;;;;;;;;;5.73;100.00;97942.97;5033846;28;19925;-75
2021/12/25 03:00:58;;;;;;;;;;;;;;;5.81;100.00;97944.44;5033821;28;20292;-75
2021/12/25 03:03:25;;;;;;;;;;;;;;;5.91;100.00;97946.31;5033963;28;19926;-75
2021/12/25 03:05:57;;;;;;;;;;;;;;;5.90;100.00;97947.50;5033263;28;19929;-75
2021/12/25 03:08:24;;;;;;;;;;;;;;;5.67;100.00;97933.56;5017283;28;19929;-75
2021/12/25 03:10:59;;;;;;;;;;;;;;;5.88;100.00;97939.59;5033831;28;19925;-75
2021/12/25 03:13:33;;;;;;;;;;;;;;;5.66;100.00;97923.69;5033326;28;19925;-75
2021/12/25 03:16:01;;;;;;;;;;;;;;;5.85;100.00;97923.03;5033312;28;20359;-75
2021/12/25 03:18:31;;;;;;;;;;;;;;;5.66;100.00;97929.22;5034609;28;19925;-75
2021/12/25 03:21:02;;;;;;;;;;;;;;;5.86;100.00;97938.47;5033337;28;19935;-75
2021/12/25 03:23:29;;;;;;;;;;;;;;;5.85;100.00;97939.66;5033305;28;19956;-75
2021/12/25 03:25:57;;;;;;;;;;;;;;;5.74;100.00;97944.56;5051438;28;19925;-75
2021/12/25 03:28:25;;;;;;;;;;;;;;;5.79;100.00;97955.94;5036441;28;19928;-75
2021/12/25 03:30:52;;;;;;;;;;;;;;;5.94;100.00;97937.16;5052700;28;19924;-75
2021/12/25 03:33:20;;;;;;;;;;;;;;;5.81;100.00;97933.34;5055820;28;19993;-75
2021/12/25 03:35:47;;;;;;;;;;;;;;;5.62;100.00;97940.34;5056395;28;19931;-75
2021/12/25 03:38:15;;;;;;;;;;;;;;;5.73;100.00;97945.75;5055779;28;19924;-75
2021/12/25 03:40:43;;;;;;;;;;;;;;;5.68;100.00;97940.69;5056348;28;20015;-76
2021/12/25 03:43:10;;;;;;;;;;;;;;;5.75;100.00;97943.34;5073768;28;19925;-75
2021/12/25 03:45:38;;;;;;;;;;;;;;;5.74;100.00;97941.78;5055459;28;19925;-75
2021/12/25 03:48:12;;;;;;;;;;;;;;;5.78;100.00;97940.53;5055891;28;19924;-75
2021/12/25 03:58:57;;;;;;;;;;;;;;;5.68;100.00;97943.47;5039546;28;19924;-75
2021/12/25 04:06:57;;;;;;;;;;;;;;;5.85;100.00;97956.28;5055757;28;19971;-76
2021/12/25 04:09:29;;;;;;;;;;;;;;;5.91;100.00;97949.09;5039441;28;19934;-75
2021/12/25 04:12:03;;;;;;;;;;;;;;;5.57;100.00;97952.69;5055662;28;19928;-75
2021/12/25 04:14:32;;;;;;;;;;;;;;;5.83;100.00;97959.47;5055651;28;19931;-75
2021/12/25 04:16:59;;;;;;;;;;;;;;;5.78;100.00;97959.13;5055765;28;19924;-76
2021/12/25 04:19:26;;;;;;;;;;;;;;;5.76;100.00;97953.22;5055759;28;20349;-76
2021/12/25 04:21:58;;;;;;;;;;;;;;;5.70;100.00;97968.75;5055635;28;19967;-75
2021/12/25 04:24:33;;;;;;;;;;;;;;;5.55;100.00;97971.72;5039099;28;19935;-75
2021/12/25 04:27:01;;;;;;;;;;;;;;;5.86;100.00;97978.03;5055319;28;19925;-75
2021/12/25 05:05:01;;;;;;;;;;;;;;;5.63;100.00;97975.97;5073220;28;20029;-75
2021/12/25 05:07:49;;;;;;;;;;;;;;;5.59;100.00;97977.22;5058285;28;19925;-75
2021/12/25 05:10:16;;;;;;;;;;;;;;;5.80;100.00;97976.91;5058491;28;20314;-75
2021/12/25 05:12:43;;;;;;;;;;;;;;;5.70;100.00;97996.47;5058938;28;19924;-75
2021/12/25 05:15:10;;;;;;;;;;;;;;;5.61;100.00;97980.34;5058959;28;19967;-75
2021/12/25 05:17:38;;;;;;;;;;;;;;;5.62;100.00;97987.47;5058758;28;20334;-75
2021/12/25 05:20:08;;;;;;;;;;;;;;;5.54;100.00;97991.53;5058540;28;19933;-75
2021/12/25 05:22:36;;;;;;;;;;;;;;;5.80;100.00;97992.78;5058648;28;19986;-75
2021/12/25 05:25:05;;;;;;;;;;;;;;;5.71;100.00;97990.50;5058405;28;20381;-75
2021/12/25 05:27:35;;;;;;;;;;;;;;;5.52;100.00;97989.19;5058577;28;19939;-75
2021/12/25 05:30:03;;;;;;;;;;;;;;;5.56;100.00;98000.22;5041612;28;20390;-75
2021/12/25 05:32:55;;;;;;;;;;;;;;;5.64;100.00;97996.16;4974940;28;19927;-75
2021/12/25 05:35:45;;;;;;;;;;;;;;;5.53;100.00;97993.53;4977536;28;19930;-75
2021/12/25 05:38:42;;;;;;;;;;;;;;;5.29;100.00;98002.94;4977732;28;19925;-75
2021/12/25 05:41:30;;;;;;;;;;;;;;;5.26;100.00;97998.22;4978478;28;19930;-75
2021/12/25 05:44:00;;;;;;;;;;;;;;;5.33;100.00;98009.19;4994196;28;20347;-75
2021/12/25 05:46:54;;;;;;;;;;;;;;;5.41;100.00;98010.69;4993438;28;19948;-75
2021/12/25 05:49:21;;;;;;;;;;;;;;;5.54;100.00;98013.72;4994114;28;19925;-75
2021/12/25 05:51:53;;;;;;;;;;;;;;;5.46;100.00;98024.09;4994380;28;20011;-75
2021/12/25 05:54:27;;;;;;;;;;;;;;;5.26;100.00;98023.16;4978010;28;20286;-75
2021/12/25 05:57:13;;;;;;;;;;;;;;;5.30;100.00;98025.88;4977810;28;19925;-76
2021/12/25 06:00:06;;;;;;;;;;;;;;;5.25;100.00;98023.56;4987612;28;20344;-75
2021/12/25 06:02:44;;;;;;;;;;;;;;;5.23;100.00;98031.47;4980507;28;20464;-77
2021/12/25 06:05:20;;;;;;;;;;;;;;;5.36;100.00;98030.53;4986990;28;19989;-75
2021/12/25 06:07:47;;;;;;;;;;;;;;;5.05;100.00;98023.38;4972975;28;20382;-74
2021/12/25 06:10:14;;;;;;;;;;;;;;;5.21;100.00;98031.91;5008525;28;20359;-74
2021/12/25 06:12:43;;;;;;;;;;;;;;;5.10;100.00;98034.00;5033365;28;20007;-74
2021/12/25 06:15:12;;;;;;;;;;;;;;;5.09;100.00;98026.88;5054067;28;19931;-76
2021/12/25 06:18:02;;;;;;;;;;;;;;;4.97;100.00;98024.66;4974484;28;20449;-75
2021/12/25 06:20:48;;;;;;;;;;;;;;;5.04;100.00;98041.19;4973995;28;20378;-76
2021/12/25 06:23:30;;;;;;;;;;;;;;;4.90;100.00;98044.09;4957605;28;20305;-76
2021/12/25 06:26:20;;;;;;;;;;;;;;;5.12;100.00;98042.69;4976260;28;20388;-76
2021/12/25 06:29:19;;;;;;;;;;;;;;;4.92;100.00;98032.63;4973352;28;19926;-76
2021/12/25 06:32:05;;;;;;;;;;;;;;;4.83;100.00;98024.78;4973665;28;20387;-76
2021/12/25 06:35:08;;;;;;;;;;;;;;;4.97;100.00;98030.19;4973563;28;19926;-76
2021/12/25 06:37:59;;;;;;;;;;;;;;;4.81;100.00;98027.19;4927879;29;19958;-76
2021/12/25 06:40:36;;;;;;;;;;;;;;;5.06;100.00;98035.22;4954634;29;20021;-76
2021/12/25 06:43:03;;;;;;;;;;;;;;;4.78;100.00;98039.09;4941089;28;19960;-76
2021/12/25 06:45:31;;;;;;;;;;;;;;;4.78;100.00;98050.16;4957738;28;19942;-76
2021/12/25 06:47:58;;;;;;;;;;;;;;;4.80;100.00;98050.50;4957957;28;19930;-76
2021/12/25 06:50:45;;;;;;;;;;;;;;;4.72;100.00;98060.09;4949824;28;20078;-76
2021/12/25 06:53:31;;;;;;;;;;;;;;;4.77;100.00;98058.88;4957819;28;19927;-77
2021/12/25 06:56:22;;;;;;;;;;;;;;;4.64;100.00;98072.41;5016281;28;19975;-76
2021/12/25 06:58:58;;;;;;;;;;;;;;;4.67;100.00;98066.06;5016065;28;19925;-76
2021/12/25 07:01:27;;;;;;;;;;;;;;;4.78;100.00;98065.97;4999606;28;19952;-76
2021/12/25 07:03:55;;;;;;;;;;;;;;;4.78;100.00;98072.28;5032506;28;19932;-76
2021/12/25 07:06:41;;;;;;;;;;;;;;;4.76;100.00;98080.22;5016041;28;20008;-76
2021/12/25 07:09:27;;;;;;;;;;;;;;;4.89;100.00;98080.50;5032508;28;19925;-76
2021/12/25 07:12:27;;;;;;;;;;;;;;;4.82;100.00;98078.56;5006662;28;19932;-76
2021/12/25 07:15:29;;;;;;;;;;;;;;;4.74;100.00;98079.06;5037139;28;19925;-76
2021/12/25 07:18:07;;;;;;;;;;;;;;;4.57;100.00;98078.00;5036819;28;19929;-76
2021/12/25 07:20:51;;;;;;;;;;;;;;;4.66;100.00;98081.09;5053158;28;19932;-76
2021/12/25 07:23:39;;;;;;;;;;;;;;;4.56;100.00;98090.25;5052662;28;19925;-76
2021/12/25 07:26:17;;;;;;;;;;;;;;;4.50;100.00;98089.09;5053113;28;19925;-76
2021/12/25 07:29:05;;;;;;;;;;;;;;;4.45;100.00;98086.78;5029064;28;20059;-76
2021/12/25 07:31:32;;;;;;;;;;;;;;;4.54;100.00;98084.34;5036049;28;19952;-76
2021/12/25 07:33:59;;;;;;;;;;;;;;;4.36;100.00;98094.72;5020140;28;20023;-76
2021/12/25 07:36:26;;;;;;;;;;;;;;;4.30;100.00;98092.81;5053133;28;19925;-76
2021/12/25 07:38:56;;;;;;;;;;;;;;;4.25;100.00;98094.03;5036582;28;19929;-76
2021/12/25 07:41:28;;;;;;;;;;;;;;;4.16;100.00;98096.47;5036392;28;19924;-79
2021/12/25 07:43:55;;;;;;;;;;;;;;;4.33;100.00;98106.59;5020317;28;20078;-74
2021/12/25 07:46:48;;;;;;;;;;;;;;;4.15;100.00;98105.94;5051046;28;20062;-75
2021/12/25 07:49:19;;;;;;;;;;;;;;;4.00;100.00;98098.91;5036075;28;20372;-73
2021/12/25 07:51:47;;;;;;;;;;;;;;;4.05;100.00;98109.56;5053979;28;19932;-73
2021/12/25 07:54:15;;;;;;;;;;;;;;;4.11;100.00;98107.16;5054111;28;19925;-73
2021/12/25 07:56:42;;;;;;;;;;;;;;;3.87;100.00;98111.63;5036240;28;20309;-73
2021/12/25 07:59:09;;;;;;;;;;;;;;;4.05;100.00;98109.56;5054056;28;19932;-76
2021/12/25 08:01:37;;;;;;;;;;;;;;;4.11;100.00;98113.47;5052768;28;19925;-75
2021/12/25 08:04:06;;;;;;;;;;;;;;;3.94;100.00;98122.63;5036301;28;19939;-75
2021/12/25 08:06:34;;;;;;;;;;;;;;;3.91;100.00;98126.19;5092234;28;19924;-75
2021/12/25 08:09:03;;;;;;;;;;;;;;;3.90;100.00;98132.94;5088423;28;19928;-75
2021/12/25 08:11:31;;;;;;;;;;;;;;;3.94;100.00;98130.91;5091966;28;19932;-76
2021/12/25 08:13:58;;;;;;;;;;;;;;;3.99;100.00;98129.72;5075326;28;19924;-76
2021/12/25 08:16:25;;;;;;;;;;;;;;;3.83;100.00;98138.50;5093220;28;19924;-75
2021/12/25 08:18:52;;;;;;;;;;;;;;;3.81;100.00;98134.53;5093685;28;19931;-76
2021/12/25 08:21:38;;;;;;;;;;;;;;;3.73;100.00;98133.78;5069250;28;19974;-75
2021/12/25 08:24:24;;;;;;;;;;;;;;;3.78;100.00;98130.63;5075321;28;20466;-76
2021/12/25 08:27:20;;;;;;;;;;;;;;;3.75;100.00;98131.41;5011726;28;20038;-76
2021/12/25 08:30:19;;;;;;;;;;;;;;;3.52;100.00;98133.84;5004072;28;19933;-75
2021/12/25 08:33:05;;;;;;;;;;;;;;;3.69;100.00;98149.59;4998206;28;19926;-76
2021/12/25 08:35:51;;;;;;;;;;;;;;;3.48;100.00;98144.13;4996835;28;19973;-80
2021/12/25 08:38:20;;;;;;;;;;;;;;;3.62;100.00;98136.59;4971900;28;19926;-76
2021/12/25 08:40:53;;;;;;;;;;;;;;;3.67;100.00;98140.91;5002531;28;20002;-76
2021/12/25 08:43:24;;;;;;;;;;;;;;;3.64;100.00;98153.56;4999170;28;19925;-76
2021/12/25 08:46:15;;;;;;;;;;;;;;;3.69;100.00;98160.66;5009559;28;19925;-76
2021/12/25 08:48:42;;;;;;;;;;;;;;;3.46;100.00;98158.34;4983377;28;19938;-76
2021/12/25 08:51:09;;;;;;;;;;;;;;;3.72;100.00;98143.28;4992194;28;20594;-76
2021/12/25 08:53:36;;;;;;;;;;;;;;;3.58;100.00;98162.63;4991042;28;19932;-76
2021/12/25 08:56:04;;;;;;;;;;;;;;;3.51;100.00;98154.38;4991821;28;19933;-77
2021/12/25 08:58:34;;;;;;;;;;;;;;;3.58;100.00;98174.50;4992018;28;19925;-76
2021/12/25 09:01:06;;;;;;;;;;;;;;;3.40;100.00;98159.94;4991416;28;19926;-77
2021/12/25 09:03:34;;;;;;;;;;;;;;;3.68;100.00;98167.38;5020255;28;19932;-77
2021/12/25 09:06:04;;;;;;;;;;;;;;;3.58;100.00;98162.63;5064067;28;20343;-78
2021/12/25 09:08:31;;;;;;;;;;;;;;;3.62;100.00;98163.41;5070700;28;19929;-77
2021/12/25 09:11:00;;;;;;;;;;;;;;;3.61;100.00;98167.38;5073315;28;19954;-76
2021/12/25 09:13:31;;;;;;;;;;;;;;;3.67;100.00;98165.78;5055855;28;19965;-76
2021/12/25 09:15:59;;;;;;;;;;;;;;;3.86;100.00;98170.84;5054778;28;20518;-76
2021/12/25 09:18:26;;;;;;;;;;;;;;;3.82;100.00;98174.81;5076259;28;19959;-76
2021/12/25 09:20:53;;;;;;;;;;;;;;;3.86;100.00;98187.44;5080151;28;19924;-77
2021/12/25 09:23:20;;;;;;;;;;;;;;;3.84;100.00;98170.47;5091928;28;20321;-76
2021/12/25 09:25:49;;;;;;;;;;;;;;;3.55;100.00;98164.22;5057946;28;19924;-76
2021/12/25 09:28:16;;;;;;;;;;;;;;;3.76;100.00;98166.13;5034559;28;19924;-79
2021/12/25 09:30:43;;;;;;;;;;;;;;;3.92;100.00;98174.78;5038008;28;19925;-77
2021/12/25 09:33:10;;;;;;;;;;;;;;;3.99;100.00;98171.97;5072820;28;19964;-76
2021/12/25 09:35:37;;;;;;;;;;;;;;;3.56;100.00;98174.09;5059237;28;19924;-76
2021/12/25 09:38:04;;;;;;;;;;;;;;;3.82;100.00;98178.34;5056637;28;19931;-75
2021/12/25 09:40:32;;;;;;;;;;;;;;;3.82;100.00;98188.63;5047502;28;19929;-76
2021/12/25 09:42:59;;;;;;;;;;;;;;;3.81;100.00;98179.53;5052229;28;19925;-79
2021/12/25 09:45:26;;;;;;;;;;;;;;;3.67;100.00;98168.53;5038549;28;20011;-78
2021/12/25 09:47:56;;;;;;;;;;;;;;;3.62;100.00;98171.69;5063471;28;20375;-79
2021/12/25 09:50:23;;;;;;;;;;;;;;;3.67;100.00;98180.38;5041271;28;20360;-78
2021/12/25 09:52:50;;;;;;;;;;;;;;;3.71;100.00;98174.84;5073818;28;19967;-79
2021/12/25 09:55:18;;;;;;;;;;;;;;;3.90;100.00;98179.91;5025202;28;19925;-72
2021/12/25 09:57:46;;;;;;;;;;;;;;;3.71;100.00;98199.72;5053916;28;19924;-73
2021/12/25 10:00:15;;;;;;;;;;;;;;;3.63;100.00;98187.09;5049546;28;19948;-73
2021/12/25 10:02:48;;;;;;;;;;;;;;;3.85;100.00;98179.53;5038029;28;19925;-74
2021/12/25 10:05:30;;;;;;;;;;;;;;;3.84;100.00;98187.03;5046979;28;20384;-75
2021/12/25 10:08:00;;;;;;;;;;;;;;;3.84;100.00;98178.75;5079073;28;19931;-74
2021/12/25 10:10:35;;;;;;;;;;;;;;;3.60;100.00;98172.09;5084681;28;19924;-74
2021/12/25 10:13:03;;;;;;;;;;;;;;;4.00;100.00;98179.06;5087431;28;20302;-74
2021/12/25 10:15:30;;;;;;;;;;;;;;;3.96;100.00;98192.13;5083746;28;19924;-75
2021/12/25 10:17:58;;;;;;;;;;;;;;;3.65;100.00;98187.47;5077302;28;19924;-74
2021/12/25 10:20:25;;;;;;;;;;;;;;;3.60;100.00;98185.91;5052794;28;19933;-74
2021/12/25 10:22:56;;;;;;;;;;;;;;;3.79;100.00;98176.38;5078632;28;20037;-75
2021/12/25 10:25:31;;;;;;;;;;;;;;;3.86;100.00;98187.44;5030323;28;20375;-74
2021/12/25 10:28:00;;;;;;;;;;;;;;;3.94;100.00;98188.19;5041764;28;19932;-75
2021/12/25 10:30:31;;;;;;;;;;;;;;;4.02;100.00;98184.19;5052275;28;19932;-75
2021/12/25 10:32:58;;;;;;;;;;;;;;;3.83;100.00;98177.19;5054110;28;20471;-74
2021/12/25 10:35:27;;;;;;;;;;;;;;;3.72;100.00;98182.75;5054092;28;19968;-74
2021/12/25 10:37:55;;;;;;;;;;;;;;;3.86;100.00;98175.59;5057056;28;19925;-77
2021/12/25 10:40:32;;;;;;;;;;;;;;;3.82;100.00;98180.34;5048243;28;19929;-75
2021/12/25 10:43:02;;;;;;;;;;;;;;;3.82;100.00;98170.06;5037556;28;20363;-75
2021/12/25 10:45:30;;;;;;;;;;;;;;;4.10;100.00;98174.69;5037842;28;20388;-75
2021/12/25 10:48:04;;;;;;;;;;;;;;;4.05;100.00;98175.09;5054759;28;20357;-75
2021/12/25 10:50:41;;;;;;;;;;;;;;;4.00;100.00;98170.00;5054402;28;20288;-75
2021/12/25 10:53:23;;;;;;;;;;;;;;;4.16;100.00;98165.59;5067214;28;20375;-74
2021/12/25 10:55:51;;;;;;;;;;;;;;;3.85;100.00;98162.97;5074921;28;19924;-74
2021/12/25 10:58:23;;;;;;;;;;;;;;;3.98;100.00;98164.88;5054131;28;19931;-74
2021/12/25 11:00:54;;;;;;;;;;;;;;;3.85;100.00;98160.97;5059592;28;20011;-75
2021/12/25 11:03:31;;;;;;;;;;;;;;;4.13;100.00;98157.28;5056547;28;19929;-77
2021/12/25 11:06:05;;;;;;;;;;;;;;;4.03;100.00;98164.44;5060332;28;19951;-79
2021/12/25 11:08:33;;;;;;;;;;;;;;;4.02;100.00;98162.09;5052642;28;19928;-80
2021/12/25 11:11:02;;;;;;;;;;;;;;;4.08;100.00;98161.28;5058496;28;19932;-79
2021/12/25 11:13:35;;;;;;;;;;;;;;;4.03;100.00;98147.84;5042897;28;20349;-79
2021/12/25 11:16:38;;;;;;;;;;;;;;;3.84;100.00;98144.78;5036688;28;19983;-81
2021/12/25 11:19:27;;;;;;;;;;;;;;;3.98;100.00;98151.06;5066382;28;19932;-80
2021/12/25 11:21:56;;;;;;;;;;;;;;;3.90;100.00;98145.94;5060856;28;19925;-79
2021/12/25 11:24:35;;;;;;;;;;;;;;;3.71;100.00;98147.22;5064276;28;20015;-80
2021/12/25 11:27:04;;;;;;;;;;;;;;;3.86;100.00;98129.41;5066583;28;19950;-81
2021/12/25 11:29:33;;;;;;;;;;;;;;;4.15;100.00;98122.53;5064967;28;20363;-79
2021/12/25 11:32:01;;;;;;;;;;;;;;;3.91;100.00;98122.66;5077437;28;20029;-80
2021/12/25 11:34:29;;;;;;;;;;;;;;;3.83;100.00;98118.34;5063892;28;21621;-81
2021/12/25 11:36:57;;;;;;;;;;;;;;;3.85;100.00;98119.53;5081368;28;20356;-81
2021/12/25 11:39:26;;;;;;;;;;;;;;;3.92;100.00;98113.97;5028132;28;20386;-81
2021/12/25 11:42:04;;;;;;;;;;;;;;;4.09;100.00;98121.38;5026655;28;19924;-79
2021/12/25 11:44:31;;;;;;;;;;;;;;;3.84;100.00;98117.94;5067710;28;20466;-80
2021/12/25 11:46:59;;;;;;;;;;;;;;;3.93;100.00;98118.31;5059331;28;19931;-82
2021/12/25 11:49:27;;;;;;;;;;;;;;;3.70;100.00;98113.28;5040368;28;19932;-82
2021/12/25 11:51:55;;;;;;;;;;;;;;;3.87;100.00;98106.09;5074268;28;20023;-80
2021/12/25 11:59:43;;;;;;;;;;;;;;;3.76;100.00;98091.53;5045235;28;20434;-77
2021/12/25 12:02:11;;;;;;;;;;;;;;;3.95;100.00;98079.22;5044860;28;20019;-82
2021/12/25 12:04:40;;;;;;;;;;;;;;;3.71;100.00;98076.16;5076398;28;19931;-80
2021/12/25 12:07:13;;;;;;;;;;;;;;;3.79;100.00;98076.91;5025442;28;19964;-79
2021/12/25 12:10:19;;;;;;;;;;;;;;;3.88;100.00;98076.50;5063773;28;19974;-78
2021/12/25 12:13:20;;;;;;;;;;;;;;;3.76;100.00;98071.44;5012505;28;20285;-79
2021/12/25 12:16:06;;;;;;;;;;;;;;;3.91;100.00;98070.94;5009665;28;20019;-80
2021/12/25 12:19:02;;;;;;;;;;;;;;;3.83;100.00;98072.19;5029726;28;19929;-80
2021/12/25 12:21:38;;;;;;;;;;;;;;;3.68;100.00;98048.56;5015546;28;20024;-79
2021/12/25 12:27:11;;;;;;;;;;;;;;;3.71;100.00;98064.34;4995600;28;20353;-78
2021/12/25 12:29:38;;;;;;;;;;;;;;;3.76;100.00;98061.16;5027564;28;19979;-78
2021/12/25 12:32:28;;;;;;;;;;;;;;;3.49;100.00;98051.81;5011822;28;19961;-78
2021/12/25 12:35:01;;;;;;;;;;;;;;;3.72;100.00;98060.38;5013977;28;19925;-76
2021/12/25 12:37:30;;;;;;;;;;;;;;;3.55;100.00;98066.78;5023039;28;19966;-78
2021/12/25 12:40:04;;;;;;;;;;;;;;;3.60;100.00;98052.56;5010962;28;20027;-77
2021/12/25 12:42:40;;;;;;;;;;;;;;;3.71;100.00;98047.78;5019134;28;19925;-76
2021/12/25 12:45:27;;;;;;;;;;;;;;;3.55;100.00;98052.97;5022050;28;20020;-77
2021/12/25 12:48:15;;;;;;;;;;;;;;;3.82;100.00;98054.00;4985787;28;19931;-78
2021/12/25 12:50:50;;;;;;;;;;;;;;;3.84;100.00;98048.06;5052701;28;19932;-79
2021/12/25 12:53:22;;;;;;;;;;;;;;;3.75;100.00;98040.25;5068471;28;19924;-76
2021/12/25 12:55:50;;;;;;;;;;;;;;;3.61;100.00;98043.06;5073042;28;19925;-77
2021/12/25 12:58:22;;;;;;;;;;;;;;;3.79;100.00;98049.28;5055706;28;20015;-79
2021/12/25 13:00:57;;;;;;;;;;;;;;;3.80;100.00;98056.41;5072888;28;20010;-78
2021/12/25 13:03:25;;;;;;;;;;;;;;;3.68;100.00;98045.81;5059591;28;19940;-78
2021/12/25 13:06:02;;;;;;;;;;;;;;;3.64;100.00;98047.78;5069052;28;19928;-81
2021/12/25 13:08:32;;;;;;;;;;;;;;;3.60;100.00;98063.59;5051853;28;19925;-77
2021/12/25 13:11:10;;;;;;;;;;;;;;;3.75;100.00;98051.28;5046700;28;19944;-77
2021/12/25 13:13:46;;;;;;;;;;;;;;;3.83;100.00;98050.06;5053861;28;19925;-77
2021/12/25 13:16:14;;;;;;;;;;;;;;;3.57;100.00;98047.84;5064713;28;19929;-77
2021/12/25 13:18:43;;;;;;;;;;;;;;;3.59;100.00;98046.22;5065835;28;20034;-76
2021/12/25 13:21:11;;;;;;;;;;;;;;;3.47;100.00;98046.69;5054483;28;19974;-78
2021/12/25 13:23:48;;;;;;;;;;;;;;;3.54;100.00;98037.59;5032169;28;19965;-79
2021/12/25 13:26:18;;;;;;;;;;;;;;;3.78;100.00;98036.66;5085308;28;19928;-78
2021/12/25 13:28:51;;;;;;;;;;;;;;;3.77;100.00;98029.59;5067982;28;19932;-80
2021/12/25 13:31:24;;;;;;;;;;;;;;;3.76;100.00;98028.00;5046450;28;20023;-77
2021/12/25 13:33:56;;;;;;;;;;;;;;;3.91;100.00;98029.47;5062114;28;19974;-77
2021/12/25 13:36:25;;;;;;;;;;;;;;;3.70;100.00;98024.09;5087111;28;19960;-77
2021/12/25 13:38:58;;;;;;;;;;;;;;;3.72;100.00;98016.97;5038749;28;19928;-77
2021/12/25 13:41:28;;;;;;;;;;;;;;;3.81;100.00;98016.53;5064013;28;19989;-80
2021/12/25 13:44:08;;;;;;;;;;;;;;;4.03;100.00;98020.72;5040803;28;20272;-81
2021/12/25 13:46:39;;;;;;;;;;;;;;;3.87;100.00;98022.41;5058683;28;19925;-80
2021/12/25 13:49:06;;;;;;;;;;;;;;;3.74;100.00;98019.34;5075909;28;19925;-79
2021/12/25 13:51:33;;;;;;;;;;;;;;;3.56;100.00;98024.16;5058801;28;19928;-80
2021/12/25 13:54:00;;;;;;;;;;;;;;;3.73;100.00;98026.81;5076587;28;19993;-80
2021/12/25 13:56:27;;;;;;;;;;;;;;;3.77;100.00;98032.34;5076177;28;19924;-80
2021/12/25 13:58:55;;;;;;;;;;;;;;;3.67;100.00;98025.69;5058638;28;19929;-79
2021/12/25 14:01:24;;;;;;;;;;;;;;;3.61;100.00;98032.81;5058256;28;20548;-80
2021/12/25 14:03:52;;;;;;;;;;;;;;;3.81;100.00;98037.84;5040080;28;19925;-80
2021/12/25 14:06:22;;;;;;;;;;;;;;;3.72;100.00;98027.22;5056040;28;19932;-80
2021/12/25 14:08:49;;;;;;;;;;;;;;;3.81;100.00;98024.81;5038353;28;19925;-80
2021/12/25 14:11:16;;;;;;;;;;;;;;;3.64;100.00;98020.97;5040079;28;19928;-80
2021/12/25 14:13:43;;;;;;;;;;;;;;;3.88;100.00;98015.69;5056199;28;19931;-79
2021/12/25 14:16:11;;;;;;;;;;;;;;;3.89;100.00;98022.78;5041069;28;19924;-78
2021/12/25 14:18:40;;;;;;;;;;;;;;;3.98;100.00;98018.41;5071616;28;20015;-79
2021/12/25 14:21:12;;;;;;;;;;;;;;;3.80;100.00;98028.78;5037823;28;19925;-79
2021/12/25 14:23:39;;;;;;;;;;;;;;;3.90;100.00;98025.16;5062054;28;19931;-78
2021/12/25 14:26:09;;;;;;;;;;;;;;;3.83;100.00;98027.97;5075395;28;20317;-79
2021/12/25 14:28:38;;;;;;;;;;;;;;;4.02;100.00;98024.69;5057891;28;19925;-78
2021/12/25 14:31:08;;;;;;;;;;;;;;;4.06;100.00;98025.44;5067742;28;20011;-77
2021/12/25 14:33:36;;;;;;;;;;;;;;;3.91;100.00;98025.94;5069685;28;20008;-76
2021/12/25 14:36:08;;;;;;;;;;;;;;;3.89;100.00;98020.81;5042643;28;19955;-77
2021/12/25 14:38:41;;;;;;;;;;;;;;;3.76;100.00;98016.94;5050713;28;20275;-77
2021/12/25 14:41:09;;;;;;;;;;;;;;;3.82;100.00;98020.84;5050483;28;19924;-77
2021/12/25 14:43:37;;;;;;;;;;;;;;;3.79;100.00;98021.66;5039544;28;19924;-79
2021/12/25 14:46:21;;;;;;;;;;;;;;;3.90;100.00;98016.88;5055165;28;20318;-78
2021/12/25 14:49:05;;;;;;;;;;;;;;;3.67;100.00;98020.16;5023327;28;19929;-79